Time;durP1;ratioP1;P1;durP2;ratioP2;P2;SDS_P1;SDS_P2;PMS_P1;PMS_P2;Temp;Humidity;BMP_temperature;BMP_pressure;BME280_temperature;BME280_humidity;BME280_pressure;Samples;Min_cycle;Max_cycle;Signal;HPM_P1;HPM_P2
2020/12/05 00:00:09;;;;;;;23.53;15.77;;;;;;;1.57;98.47;98776.13;4857577;29;20191;-71
2020/12/05 00:02:37;;;;;;;25.37;17.20;;;;;;;1.50;99.09;98777.44;4857438;29;20222;-70
2020/12/05 00:05:03;;;;;;;26.00;17.43;;;;;;;1.53;99.96;98775.84;4841756;29;20213;-70
2020/12/05 00:07:29;;;;;;;24.27;17.33;;;;;;;1.59;99.22;98757.94;4856446;29;20265;-70
2020/12/05 00:09:57;;;;;;;27.47;18.57;;;;;;;1.63;98.65;98745.66;4841597;29;20178;-71
2020/12/05 00:12:22;;;;;;;27.10;18.23;;;;;;;1.76;98.43;98737.97;4866853;29;20253;-70
2020/12/05 00:14:48;;;;;;;24.40;17.20;;;;;;;1.69;98.34;98731.25;4829231;29;20194;-70
2020/12/05 00:17:14;;;;;;;25.60;16.97;;;;;;;1.75;98.11;98730.19;4875437;29;20716;-70
2020/12/05 00:19:42;;;;;;;24.93;16.77;;;;;;;1.73;97.83;98721.63;4876030;29;20224;-72
2020/12/05 00:22:10;;;;;;;25.90;17.43;;;;;;;1.72;97.81;98714.66;4859849;29;20230;-71
2020/12/05 00:24:38;;;;;;;25.50;17.50;;;;;;;1.73;97.82;98721.63;4874973;29;20632;-71
2020/12/05 00:27:06;;;;;;;27.17;18.50;;;;;;;1.70;97.73;98711.44;4876119;29;20236;-70
2020/12/05 00:29:31;;;;;;;29.40;19.77;;;;;;;1.54;98.37;98704.47;4875157;29;20198;-70
2020/12/05 00:32:01;;;;;;;29.23;19.73;;;;;;;1.47;98.97;98711.94;4875091;29;20249;-70
2020/12/05 00:34:27;;;;;;;33.83;19.97;;;;;;;1.54;99.25;98717.84;4859875;29;20592;-71
2020/12/05 00:36:52;;;;;;;30.57;19.73;;;;;;;1.56;99.17;98737.09;4844208;29;20241;-70
2020/12/05 00:39:18;;;;;;;28.93;18.57;;;;;;;1.58;99.16;98726.94;4875137;29;20649;-70
2020/12/05 00:41:46;;;;;;;29.53;19.77;;;;;;;1.61;98.97;98718.38;4866946;29;20603;-70
2020/12/05 00:44:14;;;;;;;27.63;19.33;;;;;;;1.65;98.72;98730.19;4844312;29;20189;-71
2020/12/05 00:46:40;;;;;;;28.67;18.90;;;;;;;1.68;98.70;98729.63;4843988;29;20233;-70
2020/12/05 00:49:07;;;;;;;30.30;19.23;;;;;;;1.66;99.08;98726.44;4860012;29;20690;-70
2020/12/05 00:51:38;;;;;;;27.87;19.20;;;;;;;1.74;99.30;98726.72;4844967;29;20244;-72
2020/12/05 00:54:08;;;;;;;29.23;18.97;;;;;;;1.81;99.07;98735.28;4863505;29;20269;-71
2020/12/05 00:56:37;;;;;;;29.00;19.53;;;;;;;1.78;98.78;98745.75;4848108;29;20229;-70
2020/12/05 00:59:05;;;;;;;27.70;19.37;;;;;;;1.81;99.00;98729.94;4848724;29;20189;-70
2020/12/05 01:01:30;;;;;;;27.37;18.73;;;;;;;1.97;98.93;98731.59;4863195;29;20224;-70
2020/12/05 01:03:56;;;;;;;27.73;19.70;;;;;;;2.02;98.14;98727.06;4879296;29;20186;-70
2020/12/05 01:06:22;;;;;;;27.83;18.43;;;;;;;2.04;98.04;98721.44;4879696;29;20237;-70
2020/12/05 01:08:52;;;;;;;27.87;18.93;;;;;;;2.02;97.99;98727.06;4878306;29;20216;-70
2020/12/05 01:11:19;;;;;;;26.53;18.43;;;;;;;1.99;97.99;98732.94;4862023;29;20781;-71
2020/12/05 01:13:46;;;;;;;27.90;18.67;;;;;;;2.04;97.78;98722.25;4878436;29;20182;-70
2020/12/05 01:16:15;;;;;;;27.70;19.03;;;;;;;1.91;97.65;98718.50;4877229;29;20234;-71
2020/12/05 01:18:43;;;;;;;26.87;19.53;;;;;;;1.80;98.29;98703.47;4862586;29;20288;-71
2020/12/05 01:21:13;;;;;;;29.33;19.50;;;;;;;1.81;98.41;98707.75;4867987;29;20261;-70
2020/12/05 01:23:39;;;;;;;27.07;18.97;;;;;;;1.86;98.53;98700.53;4862515;29;20289;-70
2020/12/05 01:26:06;;;;;;;26.13;18.57;;;;;;;1.91;98.61;98709.38;4861909;29;20674;-70
2020/12/05 01:28:32;;;;;;;28.83;19.63;;;;;;;1.92;98.05;98705.66;4862527;29;20242;-70
2020/12/05 01:31:00;;;;;;;25.77;18.90;;;;;;;1.97;98.39;98708.31;4866131;29;20238;-71
2020/12/05 01:33:26;;;;;;;25.00;18.67;;;;;;;1.97;98.17;98708.31;4878279;29;20186;-71
2020/12/05 01:35:52;;;;;;;27.27;19.10;;;;;;;1.96;98.03;98706.72;4869286;29;20255;-70
2020/12/05 01:38:17;;;;;;;26.70;18.57;;;;;;;2.00;98.36;98705.13;4881068;29;20296;-70
2020/12/05 01:40:58;;;;;;;27.13;18.53;;;;;;;2.04;98.28;98698.16;4871559;29;20234;-70
2020/12/05 01:43:28;;;;;;;25.77;18.60;;;;;;;2.07;98.08;98708.34;4863591;29;20220;-70
2020/12/05 01:45:57;;;;;;;27.90;18.60;;;;;;;1.96;98.44;98711.28;4861546;29;20238;-70
2020/12/05 01:48:28;;;;;;;24.47;18.27;;;;;;;1.98;97.89;98728.66;4877925;29;20181;-71
2020/12/05 01:50:54;;;;;;;25.97;18.37;;;;;;;2.04;97.99;98740.97;4877029;29;20723;-71
2020/12/05 01:53:20;;;;;;;27.00;19.33;;;;;;;2.03;97.88;98728.69;4877865;29;20182;-71
2020/12/05 01:55:49;;;;;;;24.37;18.27;;;;;;;2.02;97.63;98716.34;4860863;29;20237;-70
2020/12/05 01:58:15;;;;;;;27.73;18.57;;;;;;;2.05;97.49;98725.72;4862208;29;20196;-70
2020/12/05 02:00:41;;;;;;;26.07;18.37;;;;;;;2.10;97.52;98726.53;4861471;29;20230;-71
2020/12/05 02:03:08;;;;;;;26.20;18.83;;;;;;;2.03;97.98;98709.13;4861348;29;20182;-71
2020/12/05 02:05:38;;;;;;;26.20;18.40;;;;;;;1.94;98.14;98703.50;4862203;29;20256;-70
2020/12/05 02:08:10;;;;;;;25.90;18.87;;;;;;;1.94;98.17;98703.50;4878698;29;20204;-71
2020/12/05 02:10:41;;;;;;;28.30;18.80;;;;;;;2.02;98.02;98711.00;4862142;29;20259;-70
2020/12/05 02:13:18;;;;;;;26.53;19.10;;;;;;;2.07;97.63;98719.03;4858383;29;20273;-70
2020/12/05 02:15:45;;;;;;;23.47;18.03;;;;;;;2.17;97.48;98707.56;4873167;29;20780;-71
2020/12/05 02:18:13;;;;;;;25.57;18.10;;;;;;;2.12;96.97;98727.06;4828339;29;20243;-71
2020/12/05 02:20:38;;;;;;;27.80;19.30;;;;;;;2.17;97.45;98732.44;4829643;29;20232;-71
2020/12/05 02:23:13;;;;;;;26.03;18.43;;;;;;;2.07;97.56;98728.94;4859448;29;20186;-72
2020/12/05 02:25:43;;;;;;;25.43;18.20;;;;;;;2.20;97.61;98710.50;4858660;29;20301;-71
2020/12/05 02:28:08;;;;;;;25.17;18.00;;;;;;;2.23;97.31;98701.91;4858430;29;20293;-72
2020/12/05 02:30:39;;;;;;;25.70;19.50;;;;;;;2.25;97.16;98697.09;4843566;29;20221;-71
2020/12/05 02:33:05;;;;;;;25.97;17.73;;;;;;;2.43;96.54;98707.28;4874012;29;20229;-72
2020/12/05 02:35:35;;;;;;;26.27;18.30;;;;;;;2.45;96.25;98715.84;4872740;29;20253;-71
2020/12/05 02:38:26;;;;;;;25.77;18.57;;;;;;;2.47;95.83;98713.72;4858012;29;20199;-71
2020/12/05 02:40:52;;;;;;;25.83;18.00;;;;;;;2.49;95.73;98712.38;4849353;29;20229;-71
2020/12/05 02:43:23;;;;;;;24.97;18.27;;;;;;;2.42;96.37;98713.72;4861574;29;20650;-71
2020/12/05 02:45:49;;;;;;;23.73;17.80;;;;;;;2.52;95.90;98705.69;4847278;29;20249;-71
2020/12/05 02:48:14;;;;;;;23.23;17.67;;;;;;;2.55;95.43;98705.16;4861052;29;20234;-71
2020/12/05 02:50:42;;;;;;;25.17;18.53;;;;;;;2.49;95.22;98716.91;4860243;29;20714;-71
2020/12/05 02:53:10;;;;;;;27.67;18.53;;;;;;;2.49;95.40;98711.56;4876413;29;20209;-71
2020/12/05 02:55:36;;;;;;;25.40;18.87;;;;;;;2.61;95.25;98725.50;4875506;29;20228;-71
2020/12/05 02:58:01;;;;;;;25.00;18.60;;;;;;;2.42;95.63;98732.47;4876759;29;20185;-71
2020/12/05 03:00:29;;;;;;;23.93;17.50;;;;;;;2.38;96.09;98726.84;4860614;29;20225;-71
2020/12/05 03:02:57;;;;;;;24.90;17.93;;;;;;;2.47;95.94;98719.06;4876846;29;20682;-71
2020/12/05 03:05:23;;;;;;;22.53;17.37;;;;;;;2.51;95.40;98725.50;4859754;29;20308;-71
2020/12/05 03:07:48;;;;;;;24.53;18.40;;;;;;;2.49;95.79;98719.59;4860837;29;20185;-71
2020/12/05 03:10:14;;;;;;;26.50;18.30;;;;;;;2.45;95.81;98716.66;4875215;29;20272;-70
2020/12/05 03:12:40;;;;;;;25.03;18.30;;;;;;;2.60;95.43;98714.00;4857593;29;20239;-71
2020/12/05 03:15:06;;;;;;;24.50;18.20;;;;;;;2.64;95.03;98711.56;4856921;29;20194;-71
2020/12/05 03:17:37;;;;;;;26.50;18.33;;;;;;;2.61;95.19;98710.22;4861207;29;20229;-71
2020/12/05 03:20:03;;;;;;;26.50;18.50;;;;;;;2.58;95.39;98715.31;4860095;29;20570;-71
2020/12/05 03:22:29;;;;;;;23.87;17.83;;;;;;;2.44;95.05;98709.69;4872832;29;20210;-71
2020/12/05 03:24:54;;;;;;;25.43;18.30;;;;;;;2.46;95.89;98717.47;4857069;29;20645;-70
2020/12/05 03:27:20;;;;;;;25.50;17.43;;;;;;;2.57;95.83;98700.34;4873608;29;20221;-71
2020/12/05 03:29:50;;;;;;;23.30;17.70;;;;;;;2.70;95.59;98693.34;4875758;29;20202;-72
2020/12/05 03:32:20;;;;;;;23.60;17.80;;;;;;;2.60;95.14;98691.75;4861111;29;20237;-70
2020/12/05 03:34:46;;;;;;;21.73;17.37;;;;;;;2.64;95.12;98684.75;4860898;29;20272;-70
2020/12/05 03:37:11;;;;;;;25.63;17.70;;;;;;;2.58;95.55;98701.91;4891072;29;20233;-70
2020/12/05 03:39:39;;;;;;;23.83;17.67;;;;;;;2.67;95.53;98713.72;4876180;29;20208;-71
2020/12/05 03:42:05;;;;;;;24.67;18.13;;;;;;;2.66;95.82;98714.81;4875230;29;20225;-71
2020/12/05 03:44:33;;;;;;;26.43;18.50;;;;;;;2.73;95.57;98719.59;4860649;29;20186;-70
2020/12/05 03:46:59;;;;;;;23.47;17.87;;;;;;;2.74;95.40;98707.78;4871074;29;20664;-70
2020/12/05 03:49:36;;;;;;;26.17;18.13;;;;;;;2.69;94.95;98697.09;4891001;29;20687;-70
2020/12/05 03:52:06;;;;;;;24.57;17.60;;;;;;;2.62;95.00;98703.00;4875667;29;20228;-72
2020/12/05 03:54:34;;;;;;;24.20;18.27;;;;;;;2.63;94.89;98708.09;4875971;29;20692;-70
2020/12/05 03:57:02;;;;;;;24.77;17.93;;;;;;;2.60;95.44;98718.53;4870644;29;20241;-70
2020/12/05 03:59:27;;;;;;;27.40;18.93;;;;;;;2.58;96.19;98720.66;4876105;29;20197;-70
2020/12/05 04:01:56;;;;;;;25.50;18.03;;;;;;;2.63;95.98;98734.06;4888910;29;20229;-70
2020/12/05 04:04:22;;;;;;;23.33;17.47;;;;;;;2.70;95.93;98740.78;4894203;29;20271;-70
2020/12/05 04:06:50;;;;;;;24.23;18.50;;;;;;;2.69;95.44;98742.66;4864746;29;20240;-69
2020/12/05 04:09:15;;;;;;;23.90;17.67;;;;;;;2.68;95.80;98738.34;4860219;29;20190;-71
2020/12/05 04:11:41;;;;;;;26.17;18.77;;;;;;;2.78;95.68;98732.19;4881688;29;20232;-72
2020/12/05 04:14:09;;;;;;;28.73;19.10;;;;;;;2.74;95.30;98731.13;4878176;29;20193;-71
2020/12/05 04:16:35;;;;;;;25.63;17.77;;;;;;;2.66;95.71;98733.56;4866548;29;20617;-71
2020/12/05 04:19:01;;;;;;;26.50;19.40;;;;;;;2.72;95.87;98731.38;4876076;29;20193;-72
2020/12/05 04:21:27;;;;;;;25.90;17.90;;;;;;;2.63;95.74;98734.06;4859654;29;20222;-71
2020/12/05 04:23:55;;;;;;;26.13;18.17;;;;;;;2.64;95.97;98725.78;4891041;29;20200;-71
2020/12/05 04:26:26;;;;;;;27.10;19.17;;;;;;;2.73;95.63;98724.16;4858795;29;20729;-72
2020/12/05 04:28:51;;;;;;;24.60;18.47;;;;;;;2.60;95.65;98715.84;4879057;29;20201;-71
2020/12/05 04:31:17;;;;;;;25.77;17.70;;;;;;;2.81;95.28;98696.81;4878246;29;20584;-71
2020/12/05 04:33:42;;;;;;;28.70;18.83;;;;;;;2.80;95.05;98704.06;4878944;29;20242;-71
2020/12/05 04:36:11;;;;;;;26.20;18.63;;;;;;;2.81;94.77;98694.94;4863032;29;20232;-71
2020/12/05 04:38:36;;;;;;;25.20;18.77;;;;;;;2.91;94.77;98704.81;4863586;29;20190;-71
2020/12/05 04:41:02;;;;;;;26.57;18.53;;;;;;;2.76;95.05;98715.56;4859668;29;20226;-72
2020/12/05 04:43:31;;;;;;;30.87;19.37;;;;;;;2.82;94.74;98706.44;4863378;29;20194;-71
2020/12/05 04:45:56;;;;;;;25.70;18.67;;;;;;;2.82;94.28;98714.47;4862632;29;20733;-72
2020/12/05 04:48:22;;;;;;;26.40;18.43;;;;;;;2.88;94.28;98708.06;4863183;29;20743;-71
2020/12/05 04:50:48;;;;;;;26.00;19.13;;;;;;;2.89;93.75;98706.97;4862567;29;20257;-71
2020/12/05 04:53:18;;;;;;;29.67;19.87;;;;;;;2.92;93.71;98699.19;4879020;29;20255;-71
2020/12/05 04:55:44;;;;;;;28.40;18.67;;;;;;;2.61;95.10;98710.22;4864668;29;20230;-72
2020/12/05 04:58:20;;;;;;;27.63;19.27;;;;;;;2.76;94.72;98699.50;4878739;29;20575;-72
2020/12/05 05:00:55;;;;;;;26.53;17.97;;;;;;;2.64;95.46;98724.94;4883527;29;20343;-72
2020/12/05 05:03:22;;;;;;;26.93;19.33;;;;;;;2.86;95.25;98735.13;4881487;29;20655;-72
2020/12/05 05:05:48;;;;;;;28.50;18.90;;;;;;;2.90;95.37;98735.41;4895859;29;20706;-71
2020/12/05 05:08:19;;;;;;;26.10;19.07;;;;;;;2.85;95.61;98749.59;4897517;29;20245;-71
2020/12/05 05:10:45;;;;;;;27.37;19.33;;;;;;;2.93;95.47;98754.44;4897546;29;20252;-72
2020/12/05 05:15:42;;;;;;;24.33;18.23;;;;;;;2.98;94.88;98775.84;4892041;29;20234;-74
2020/12/05 05:18:10;;;;;;;26.40;19.17;;;;;;;2.99;94.79;98782.84;4878290;29;20667;-73
2020/12/05 05:20:46;;;;;;;27.17;19.17;;;;;;;2.92;94.94;98784.97;4877636;29;20222;-71
2020/12/05 05:23:19;;;;;;;27.10;19.30;;;;;;;2.88;95.45;98778.53;4862897;29;20182;-71
2020/12/05 05:26:01;;;;;;;25.00;18.23;;;;;;;2.83;95.27;98767.81;4851721;29;20304;-71
2020/12/05 05:28:31;;;;;;;28.17;18.93;;;;;;;2.92;95.46;98763.53;4897452;29;20204;-71
2020/12/05 05:31:09;;;;;;;27.60;19.03;;;;;;;2.80;95.61;98752.28;4866460;29;20233;-72
2020/12/05 05:33:41;;;;;;;28.13;19.90;;;;;;;2.80;95.00;98752.28;4882085;29;20283;-71
2020/12/05 05:36:26;;;;;;;28.63;20.10;;;;;;;2.81;95.28;98753.09;4879544;29;20711;-71
2020/12/05 05:38:57;;;;;;;28.70;19.33;;;;;;;2.73;95.45;98767.84;4892845;29;20204;-71
2020/12/05 05:41:22;;;;;;;28.57;20.20;;;;;;;2.63;96.18;98771.59;4879658;29;20713;-71
2020/12/05 05:44:00;;;;;;;26.13;19.13;;;;;;;2.78;96.05;98775.88;4865336;29;20184;-71
2020/12/05 05:46:35;;;;;;;28.73;19.90;;;;;;;2.80;96.49;98784.47;4895571;29;20232;-71
2020/12/05 05:49:03;;;;;;;28.17;19.80;;;;;;;2.77;96.69;98776.16;4881143;29;20231;-71
2020/12/05 05:51:43;;;;;;;27.97;19.97;;;;;;;2.88;96.38;98775.88;4896143;29;20734;-71
2020/12/05 05:54:22;;;;;;;27.57;19.00;;;;;;;2.94;95.63;98769.41;4880528;29;20192;-72
2020/12/05 05:57:04;;;;;;;27.83;19.90;;;;;;;3.05;94.99;98754.94;4895528;29;20228;-71
2020/12/05 05:59:38;;;;;;;27.30;19.80;;;;;;;2.99;94.55;98753.34;4881023;29;20205;-72
2020/12/05 06:02:06;;;;;;;28.17;19.47;;;;;;;2.95;94.92;98733.53;4895986;29;20596;-71
2020/12/05 06:04:39;;;;;;;28.37;20.13;;;;;;;2.92;94.55;98738.63;4896175;29;20219;-71
2020/12/05 06:07:14;;;;;;;25.70;19.00;;;;;;;2.89;95.16;98747.19;4896097;29;20754;-71
2020/12/05 06:09:50;;;;;;;27.93;19.63;;;;;;;2.82;95.49;98771.59;4881251;29;20228;-71
2020/12/05 06:12:30;;;;;;;27.33;19.07;;;;;;;2.83;95.61;98772.38;4880624;29;20272;-71
2020/12/05 06:14:56;;;;;;;28.30;19.70;;;;;;;2.88;96.08;98783.91;4880798;29;20188;-71
2020/12/05 06:17:26;;;;;;;27.73;19.13;;;;;;;3.01;95.51;98783.38;4878361;29;20774;-72
2020/12/05 06:19:53;;;;;;;28.90;19.33;;;;;;;2.93;95.54;98773.19;4862251;29;20333;-71
2020/12/05 06:22:40;;;;;;;28.93;20.93;;;;;;;2.92;95.14;98771.56;4862010;29;20646;-71
2020/12/05 06:25:12;;;;;;;29.90;19.70;;;;;;;2.78;95.45;98775.88;4876124;29;20194;-72
2020/12/05 06:27:47;;;;;;;30.10;19.77;;;;;;;2.73;95.62;98770.50;4847056;29;20229;-72
2020/12/05 06:30:13;;;;;;;27.50;19.60;;;;;;;2.70;96.09;98773.72;4845996;29;20237;-72
2020/12/05 06:32:45;;;;;;;27.07;19.40;;;;;;;2.53;96.32;98764.34;4861234;29;20217;-71
2020/12/05 06:35:19;;;;;;;32.23;21.33;;;;;;;2.65;96.45;98761.41;4860242;29;20196;-71
2020/12/05 06:37:45;;;;;;;27.53;19.80;;;;;;;2.55;97.52;98764.09;4878130;29;20185;-71
2020/12/05 06:40:11;;;;;;;30.97;21.30;;;;;;;2.74;97.15;98748.00;4859807;29;20556;-73
2020/12/05 06:42:43;;;;;;;31.87;20.80;;;;;;;2.66;96.37;98741.59;4855061;29;20204;-72
2020/12/05 06:45:28;;;;;;;30.40;21.17;;;;;;;2.71;96.84;98732.47;4845428;29;20228;-72
2020/12/05 06:48:09;;;;;;;30.73;21.03;;;;;;;2.72;96.49;98739.41;4863538;29;20276;-72
2020/12/05 06:50:38;;;;;;;28.23;20.27;;;;;;;2.74;96.67;98726.56;4868094;29;20237;-72
2020/12/05 06:53:21;;;;;;;28.63;20.23;;;;;;;2.73;96.55;98737.56;4855064;29;20237;-72
2020/12/05 06:55:48;;;;;;;29.60;19.47;;;;;;;2.68;96.46;98726.84;4869869;29;20229;-72
2020/12/05 06:58:13;;;;;;;29.83;19.60;;;;;;;2.54;97.16;98741.03;4892210;29;20773;-71
2020/12/05 07:00:39;;;;;;;28.83;20.03;;;;;;;2.43;97.20;98745.56;4890405;29;20316;-72
2020/12/05 07:03:10;;;;;;;28.13;18.77;;;;;;;2.52;97.36;98784.16;4874901;29;20550;-72
2020/12/05 07:05:36;;;;;;;26.23;19.53;;;;;;;2.39;97.83;98818.69;4844970;29;20201;-71
2020/12/05 07:08:21;;;;;;;25.97;19.20;;;;;;;2.35;98.44;98839.03;4860015;29;20193;-72
2020/12/05 07:10:58;;;;;;;30.37;19.90;;;;;;;2.30;98.87;98847.06;4873149;29;20217;-71
2020/12/05 07:13:25;;;;;;;29.13;20.47;;;;;;;2.34;99.19;98853.50;4845333;29;20239;-72
2020/12/05 07:15:51;;;;;;;27.97;19.63;;;;;;;2.40;99.19;98863.13;4897755;29;20228;-72
2020/12/05 07:18:20;;;;;;;27.70;20.23;;;;;;;2.44;98.47;98880.31;4846676;29;20544;-72
2020/12/05 07:20:48;;;;;;;28.07;20.40;;;;;;;2.50;98.85;98887.28;4858228;29;20220;-72
2020/12/05 07:23:15;;;;;;;27.27;18.63;;;;;;;2.55;98.29;98911.41;4852229;29;20187;-73
2020/12/05 07:25:41;;;;;;;28.13;19.90;;;;;;;2.62;98.18;98920.00;4872961;29;20945;-72
2020/12/05 07:28:06;;;;;;;28.20;19.63;;;;;;;2.51;98.34;98923.69;4841459;29;20186;-72
2020/12/05 07:30:34;;;;;;;30.03;20.47;;;;;;;2.48;98.47;98934.97;4841323;29;20249;-73
2020/12/05 07:33:00;;;;;;;28.13;20.23;;;;;;;2.40;98.93;98927.41;4854402;29;20237;-72
2020/12/05 07:35:27;;;;;;;27.37;19.33;;;;;;;2.54;98.62;98928.53;4875920;29;20596;-72
2020/12/05 07:37:53;;;;;;;32.00;19.73;;;;;;;2.41;98.52;98929.03;4861529;29;20189;-72
2020/12/05 07:40:25;;;;;;;28.97;19.40;;;;;;;2.48;98.63;98941.13;4850361;29;20201;-72
2020/12/05 07:42:53;;;;;;;25.27;18.83;;;;;;;2.63;97.62;98937.69;4851694;29;20186;-72
2020/12/05 07:45:19;;;;;;;28.23;19.20;;;;;;;2.41;98.21;98923.69;4860009;29;20300;-72
2020/12/05 07:47:47;;;;;;;30.03;20.27;;;;;;;2.44;98.67;98923.97;4867364;29;20221;-72
2020/12/05 07:50:17;;;;;;;28.80;19.87;;;;;;;2.30;98.93;98914.00;4868126;29;20269;-72
2020/12/05 07:52:43;;;;;;;25.37;18.90;;;;;;;2.44;99.01;98912.44;4843646;29;20308;-73
2020/12/05 07:55:10;;;;;;;29.43;20.50;;;;;;;2.35;99.08;98927.41;4864334;29;20313;-73
2020/12/05 07:57:40;;;;;;;27.10;19.17;;;;;;;2.26;99.76;98923.63;4887884;29;20747;-72
2020/12/05 08:00:15;;;;;;;41.07;25.23;;;;;;;2.49;99.07;98912.44;4878522;29;20189;-72
2020/12/05 08:02:49;;;;;;;60.60;31.60;;;;;;;2.51;98.75;98923.69;4897140;29;20705;-72
2020/12/05 08:05:26;;;;;;;57.83;32.27;;;;;;;2.40;99.17;98900.63;4896037;29;20211;-72
2020/12/05 08:08:00;;;;;;;163.17;72.10;;;;;;;2.50;98.83;98919.44;4882276;29;20191;-73
2020/12/05 08:10:30;;;;;;;33.90;22.73;;;;;;;2.47;98.51;98927.97;4881432;29;20228;-73
2020/12/05 08:13:02;;;;;;;27.40;20.30;;;;;;;2.42;98.83;98927.97;4880848;29;20220;-72
2020/12/05 08:15:32;;;;;;;28.00;19.37;;;;;;;2.41;98.82;98929.03;4884157;29;20241;-72
2020/12/05 08:18:00;;;;;;;26.27;18.67;;;;;;;2.54;99.00;98931.22;4844560;29;20194;-72
2020/12/05 08:20:26;;;;;;;28.13;19.13;;;;;;;2.57;98.73;98954.81;4829260;29;20296;-72
2020/12/05 08:22:54;;;;;;;26.87;18.03;;;;;;;2.76;97.99;98960.22;4844639;29;20190;-72
2020/12/05 08:25:22;;;;;;;29.10;23.57;;;;;;;2.67;98.12;98972.53;4859097;29;20226;-72
2020/12/05 08:27:47;;;;;;;27.20;21.83;;;;;;;2.67;98.22;98992.34;4859956;29;20183;-72
2020/12/05 08:30:14;;;;;;;29.90;21.60;;;;;;;2.72;98.34;98996.66;4843654;29;20251;-72
2020/12/05 08:32:40;;;;;;;27.07;18.83;;;;;;;2.97;97.67;98987.88;4844383;29;20225;-72
2020/12/05 08:35:08;;;;;;;26.83;19.50;;;;;;;3.00;97.41;98993.53;4843723;29;20744;-72
2020/12/05 08:37:34;;;;;;;28.13;19.67;;;;;;;2.91;97.73;99016.56;4860290;29;20577;-72
2020/12/05 08:40:00;;;;;;;25.67;18.73;;;;;;;3.08;97.62;99022.53;4867681;29;20185;-72
2020/12/05 08:42:26;;;;;;;27.17;18.93;;;;;;;3.19;96.95;99024.16;4869893;29;20591;-72
2020/12/05 08:44:52;;;;;;;24.87;17.50;;;;;;;3.18;96.50;99031.38;4839259;29;20219;-73
2020/12/05 08:47:18;;;;;;;26.10;18.30;;;;;;;3.17;96.74;99027.09;4862100;29;20264;-72
2020/12/05 08:49:50;;;;;;;26.43;18.73;;;;;;;3.26;96.60;99032.72;4863196;29;20246;-73
2020/12/05 08:52:16;;;;;;;23.67;18.13;;;;;;;3.30;95.28;99031.94;4863164;29;20236;-71
2020/12/05 08:54:46;;;;;;;25.10;18.17;;;;;;;3.31;95.32;99038.13;4879516;29;20289;-71
2020/12/05 08:57:13;;;;;;;24.77;18.23;;;;;;;3.29;95.85;99032.22;4895208;29;20225;-71
2020/12/05 08:59:41;;;;;;;26.60;18.03;;;;;;;3.35;95.57;99040.03;4851141;29;20197;-71
2020/12/05 09:02:07;;;;;;;25.37;18.47;;;;;;;3.48;95.44;99053.72;4879834;29;20221;-71
2020/12/05 09:04:36;;;;;;;25.20;17.53;;;;;;;3.29;94.97;99086.66;4897538;29;20181;-71
2020/12/05 09:07:18;;;;;;;23.53;17.57;;;;;;;3.18;95.36;99076.16;4912036;29;20229;-70
2020/12/05 09:09:44;;;;;;;24.50;17.50;;;;;;;3.25;95.95;99080.22;4893283;29;20241;-70
2020/12/05 09:12:17;;;;;;;23.37;17.30;;;;;;;3.16;95.87;99086.34;4869800;29;20221;-70
2020/12/05 09:14:47;;;;;;;23.17;17.60;;;;;;;3.42;95.76;99104.13;4895599;29;20678;-71
2020/12/05 09:17:30;;;;;;;22.50;17.13;;;;;;;3.16;95.59;99089.03;4892224;29;20237;-70
2020/12/05 09:20:15;;;;;;;21.67;17.53;;;;;;;3.24;95.98;99099.25;4862220;29;20185;-71
2020/12/05 09:22:51;;;;;;;22.33;17.07;;;;;;;3.14;96.32;99110.75;4877309;29;20564;-71
2020/12/05 09:25:30;;;;;;;22.53;17.30;;;;;;;3.31;95.74;99110.53;4890909;29;20209;-71
2020/12/05 09:27:56;;;;;;;22.77;17.10;;;;;;;3.38;95.27;99124.50;4879821;29;20181;-71
2020/12/05 09:30:23;;;;;;;20.37;16.60;;;;;;;3.33;95.90;99116.44;4895032;29;20715;-71
2020/12/05 09:32:49;;;;;;;23.77;16.97;;;;;;;3.34;96.00;99123.44;4879959;29;20297;-71
2020/12/05 09:35:18;;;;;;;22.87;17.53;;;;;;;3.35;96.08;99131.22;4894382;29;20192;-71
2020/12/05 09:37:46;;;;;;;22.93;16.90;;;;;;;3.43;96.24;99134.19;4880781;29;20177;-71
2020/12/05 09:40:16;;;;;;;21.60;16.77;;;;;;;3.44;96.36;99135.81;4887081;29;20854;-72
2020/12/05 09:42:42;;;;;;;22.50;16.37;;;;;;;3.46;96.96;99139.03;4905798;29;20191;-71
2020/12/05 09:45:17;;;;;;;23.03;16.67;;;;;;;3.53;97.11;99125.34;4868962;29;20182;-71
2020/12/05 09:47:43;;;;;;;23.53;15.73;;;;;;;3.47;96.87;99124.53;4866562;29;20193;-71
2020/12/05 09:50:09;;;;;;;21.93;16.07;;;;;;;3.52;96.99;99116.50;4893975;29;20212;-71
2020/12/05 09:52:35;;;;;;;20.10;16.90;;;;;;;3.43;97.52;99121.84;4843398;29;20221;-71
2020/12/05 09:55:03;;;;;;;22.20;17.27;;;;;;;3.64;96.64;99132.34;4891714;29;20255;-71
2020/12/05 09:57:29;;;;;;;23.97;17.07;;;;;;;3.57;96.72;99129.13;4891770;29;20230;-71
2020/12/05 09:59:55;;;;;;;22.67;17.60;;;;;;;3.40;97.63;99143.84;4876720;29;20197;-71
2020/12/05 10:02:21;;;;;;;27.70;19.10;;;;;;;3.69;97.75;99149.28;4892797;29;20224;-71
2020/12/05 10:04:46;;;;;;;25.60;18.53;;;;;;;3.60;96.48;99145.50;4881791;29;20825;-71
2020/12/05 10:07:14;;;;;;;57.40;31.70;;;;;;;3.62;97.72;99143.34;4890972;29;20232;-72
2020/12/05 10:09:42;;;;;;;30.73;21.30;;;;;;;3.51;97.40;99149.75;4878204;29;20201;-71
2020/12/05 10:12:10;;;;;;;49.67;31.30;;;;;;;3.38;98.65;99156.72;4894417;29;20237;-73
2020/12/05 10:14:36;;;;;;;32.80;24.30;;;;;;;3.30;99.22;99166.06;4879227;29;20651;-71
2020/12/05 10:17:02;;;;;;;23.23;17.87;;;;;;;3.53;98.43;99144.94;4895679;29;20303;-72
2020/12/05 10:19:27;;;;;;;21.73;16.90;;;;;;;3.57;97.59;99162.16;4895521;29;20259;-71
2020/12/05 10:21:53;;;;;;;23.77;17.23;;;;;;;3.41;98.24;99161.53;4860575;29;20349;-71
2020/12/05 10:24:19;;;;;;;21.17;17.10;;;;;;;3.37;98.59;99160.44;4864819;29;20282;-72
2020/12/05 10:26:48;;;;;;;20.77;15.43;;;;;;;3.38;98.64;99178.16;4872078;29;20249;-72
2020/12/05 10:29:14;;;;;;;22.40;16.37;;;;;;;3.22;99.73;99189.88;4872966;29;20711;-72
2020/12/05 10:31:50;;;;;;;22.77;17.83;;;;;;;3.35;99.42;99160.72;4856962;29;20227;-72
2020/12/05 10:34:19;;;;;;;21.33;16.83;;;;;;;3.29;99.77;99166.31;4857819;29;20221;-71
2020/12/05 10:36:44;;;;;;;22.07;16.20;;;;;;;3.49;98.41;99162.63;4878953;29;20217;-71
2020/12/05 10:39:10;;;;;;;22.00;16.40;;;;;;;3.30;98.78;99166.06;4906460;29;20196;-71
2020/12/05 10:41:38;;;;;;;23.97;16.47;;;;;;;3.27;99.85;99165.78;4867179;29;20222;-72
2020/12/05 10:44:04;;;;;;;21.40;16.17;;;;;;;3.36;100.00;99172.25;4861105;29;20706;-71
2020/12/05 10:46:32;;;;;;;22.10;16.57;;;;;;;3.34;100.00;99177.09;4860428;29;20241;-71
2020/12/05 10:48:58;;;;;;;20.30;15.33;;;;;;;3.61;100.00;99179.31;4859830;29;20193;-71
2020/12/05 10:51:24;;;;;;;18.80;15.37;;;;;;;3.56;100.00;99187.34;4871544;29;20228;-70
2020/12/05 10:53:50;;;;;;;18.50;15.10;;;;;;;3.75;99.75;99180.44;4875748;29;20198;-70
2020/12/05 10:56:16;;;;;;;19.47;16.07;;;;;;;3.93;99.14;99174.56;4853998;29;20229;-70
2020/12/05 10:58:42;;;;;;;19.27;15.17;;;;;;;4.28;97.49;99175.41;4896010;29;20227;-71
2020/12/05 11:01:07;;;;;;;20.17;15.63;;;;;;;4.37;96.05;99179.97;4909976;29;20224;-70
2020/12/05 11:03:35;;;;;;;17.20;13.90;;;;;;;4.39;95.76;99172.44;4879331;29;20255;-71
2020/12/05 11:06:01;;;;;;;18.77;15.20;;;;;;;4.48;96.54;99154.72;4878440;29;20232;-71
2020/12/05 11:08:27;;;;;;;17.13;13.73;;;;;;;4.56;95.72;99167.63;4894901;29;20225;-71
2020/12/05 11:10:54;;;;;;;19.27;14.30;;;;;;;4.44;96.41;99163.59;4894536;29;20779;-70
2020/12/05 11:13:22;;;;;;;20.97;14.83;;;;;;;4.27;97.34;99155.81;4860700;29;20216;-71
2020/12/05 11:15:47;;;;;;;19.37;14.43;;;;;;;4.44;97.05;99152.84;4856177;29;20237;-70
2020/12/05 11:18:13;;;;;;;17.60;14.63;;;;;;;4.38;97.19;99162.81;4894724;29;20189;-71
2020/12/05 11:20:39;;;;;;;17.70;13.93;;;;;;;4.54;96.88;99168.97;4909813;29;20856;-71
2020/12/05 11:23:06;;;;;;;17.93;14.57;;;;;;;4.39;98.46;99175.16;4890400;29;20252;-70
2020/12/05 11:25:31;;;;;;;18.67;14.30;;;;;;;4.48;97.78;99175.41;4887332;29;20730;-70
2020/12/05 11:27:59;;;;;;;17.73;13.83;;;;;;;4.39;98.29;99177.81;4875485;29;20648;-70
2020/12/05 11:30:25;;;;;;;18.93;14.50;;;;;;;4.70;97.12;99198.25;4875988;29;20197;-70
2020/12/05 11:32:51;;;;;;;18.67;15.07;;;;;;;4.57;97.91;99201.50;4876045;29;20205;-71